createdAt,value
2022-10-16T14:31:59.381Z,70.30
2022-10-16T14:35:26.815Z,70.50
2022-10-16T14:38:54.288Z,68.80
2022-10-16T14:42:21.745Z,68.80
2022-10-16T14:45:49.190Z,69.80
2022-10-16T14:49:16.639Z,68.50
2022-10-16T14:52:44.117Z,68.10
2022-10-16T14:56:11.553Z,70.70
2022-10-16T14:59:39.021Z,68.50
2022-10-16T15:03:06.532Z,70.50
2022-10-16T15:06:33.964Z,70.40
2022-10-16T15:10:01.432Z,71.50
2022-10-16T15:13:28.911Z,71.00
2022-10-16T15:16:56.389Z,72.50
2022-10-16T15:20:23.851Z,73.10
2022-10-16T15:23:51.312Z,72.90
2022-10-16T15:27:18.751Z,73.60
2022-10-16T21:33:27.400Z,99.90
2022-10-16T21:36:54.878Z,99.90
2022-10-16T21:40:22.396Z,99.90
2022-10-16T21:43:49.900Z,99.90
2022-10-16T21:47:17.375Z,99.90
2022-10-16T21:50:44.906Z,99.90
2022-10-16T21:54:12.369Z,99.90
2022-10-16T21:57:39.810Z,99.90
2022-10-16T22:01:07.298Z,99.90
2022-10-16T22:04:34.807Z,99.90
2022-10-16T22:08:02.236Z,99.90
2022-10-16T22:11:29.720Z,99.90
2022-10-16T22:14:57.208Z,99.90
2022-10-16T22:18:24.669Z,99.90
2022-10-16T22:21:52.135Z,99.90
2022-10-16T22:25:19.594Z,99.90
2022-10-16T22:28:47.070Z,99.90
2022-10-16T22:32:14.587Z,99.90
2022-10-16T22:35:42.024Z,99.90
2022-10-16T22:39:09.467Z,99.90
2022-10-16T22:42:36.950Z,99.90
2022-10-16T22:46:04.440Z,99.90
2022-10-16T22:49:31.931Z,99.90
2022-10-16T22:52:59.397Z,99.90
2022-10-16T22:56:26.840Z,99.90
2022-10-16T22:59:54.313Z,99.90
2022-10-16T23:03:21.923Z,99.90
2022-10-16T23:06:49.450Z,99.90
2022-10-16T23:10:16.943Z,99.90
2022-10-16T23:13:44.430Z,99.90
2022-10-16T23:17:11.869Z,99.90
2022-10-16T23:20:39.323Z,99.90
2022-10-16T23:24:06.793Z,99.90
2022-10-16T23:27:34.242Z,99.90
